This is the latest recevied weather packets stored in our database for station/object IU2PLZ-12. If no packets are shown the sender has not sent any weather packets the latest 10 day(s).
| Time | Temp. | Humidity | Pressure | Rain* | Wind** | Luminosity | Snow |
|---|---|---|---|---|---|---|---|
| 1777569380 | 28.89° C | 23% | 1004.5 hPa | - | - | - | - |
| 1777568479 | 28.33° C | 23% | 1004.6 hPa | - | - | - | - |
| 1777567579 | 30° C | 22% | 1004.6 hPa | - | - | - | - |
| 1777566679 | 30.56° C | 22% | 1004.5 hPa | - | - | - | - |
| 1777565779 | 31.11° C | 22% | 1004.6 hPa | - | - | - | - |
| 1777564878 | 32.22° C | 21% | 1004.6 hPa | - | - | - | - |
| 1777563978 | 33.33° C | 21% | 1004.6 hPa | - | - | - | - |
| 1777563078 | 31.67° C | 21% | 1004.7 hPa | - | - | - | - |
| 1777562178 | 32.22° C | 21% | 1004.7 hPa | - | - | - | - |
| 1777561346 | 32.22° C | 21% | 1004.7 hPa | - | - | - | - |
| 1777561278 | 32.22° C | 21% | 1004.7 hPa | - | - | - | - |
| 1777560377 | 31.11° C | 22% | 1004.8 hPa | - | - | - | - |
| 1777559477 | 31.11° C | 22% | 1005 hPa | - | - | - | - |
| 1777558577 | 32.22° C | 22% | 1005.1 hPa | - | - | - | - |
| 1777557677 | 31.67° C | 23% | 1005.3 hPa | - | - | - | - |
| 1777556777 | 31.11° C | 23% | 1005.5 hPa | - | - | - | - |
| 1777555876 | 29.44° C | 23% | 1005.7 hPa | - | - | - | - |
| 1777554976 | 28.33° C | 24% | 1005.8 hPa | - | - | - | - |
| 1777554076 | 27.78° C | 24% | 1005.9 hPa | - | - | - | - |
| 1777553176 | 27.78° C | 25% | 1006 hPa | - | - | - | - |
| 1777552276 | 25.56° C | 25% | 1006.1 hPa | - | - | - | - |
| 1777551375 | 25.56° C | 26% | 1006.2 hPa | - | - | - | - |
| 1777550475 | 25° C | 26% | 1006.4 hPa | - | - | - | - |
| 1777549575 | 25.56° C | 27% | 1006.4 hPa | - | - | - | - |
| 1777548675 | 24.44° C | 26% | 1006.5 hPa | - | - | - | - |
* Rain since midnight (hover to see other rain measurements)
** Current wind speed in m/s (hover to see current wind gust speed)